Airfield :
LOGIN :

Register | Disclaimer

   EN    FR    IT 

 










Legend :    VFR   Marginal VFR   IFR   Intensive IFR   Very Intensive IFR
Visi :
Ceiling :
>= 8 km
>= 3000ft
5 to 8 km
1000 to 3000 ft
1500m to 5 km
500 to 1000 ft
800 to 1500m
200 to 500 ft
< 800m
< 200 ft
Symbols :   Thunderstorms  Fog  Heavy snow  Heavy precipitations  Wind > 20 kt
SIGMETs :     Misc.  Thunderstorms  Icing  Turbulence  Mountain Waves  Volcanic Ashes







- Airport Elevation : 36 ft
- IATA code : LTQ
- Download approach charts


LFAT - Le Touquet

CURRENT METAR :
  • 160830Z AUTO 34012KT 9999 OVC017 04/01 Q1015 NOSIG

EXPIRED METARs :
  • 160800Z AUTO 34012KT 9999 OVC016 04/02 Q1015 NOSIG
  • 160730Z AUTO 34012KT 9999 OVC016 04/01 Q1014 NOSIG
  • 160700Z AUTO 34013KT 9999 BKN016 04/01 Q1014 NOSIG
  • 160630Z AUTO 35015KT 9999 BKN015 04/01 Q1013 BECMG 32010G20KT
  • 160600Z AUTO 35011KT 9999 BKN015 04/02 Q1013 NOSIG

TAF TAF LFAT
Valid from the 16 at 09:00 until the 16 at 18:00 UTC


160800Z 1609/1618 34012KT 9999 OVC015
BECMG 1609/1611 SCT020
ATIS : +33 3 21 06 62 84
No reported NOTAMs for that airfield.



MET'MAP, your aeronautical weather chart ! - Copyright ORBIFLY December 2007 - Disclaimer

ORBIFLY MET'MAP TEAM :

Programming & Development : Alexandra Zaïnal
Concept & Development : Baudouin d'Aumeries
Co-Development & Prog : Marc-Olivier Méhu
Technical & hardware support : Manuel Goepfert

Contact : metmap@orbifly.com




SOURCES & CREDITS :

   NOAA